sensor_id;sensor_type;location;lat;lon;timestamp;pressure;altitude;pressure_sealevel;temperature;humidity
3917;BME280;1973;50.518;7.318;2023-03-04T00:02:09;101901.66;;;1.37;100.00
3917;BME280;1973;50.518;7.318;2023-03-04T00:04:36;101899.53;;;1.41;100.00
3917;BME280;1973;50.518;7.318;2023-03-04T00:07:02;101892.84;;;1.45;100.00
3917;BME280;1973;50.518;7.318;2023-03-04T00:09:28;101888.91;;;1.49;100.00
3917;BME280;1973;50.518;7.318;2023-03-04T00:11:55;101888.53;;;1.54;100.00
3917;BME280;1973;50.518;7.318;2023-03-04T00:14:21;101889.00;;;1.59;100.00
3917;BME280;1973;50.518;7.318;2023-03-04T00:16:48;101882.56;;;1.60;100.00
3917;BME280;1973;50.518;7.318;2023-03-04T00:19:14;101886.00;;;1.62;100.00
3917;BME280;1973;50.518;7.318;2023-03-04T00:21:41;101881.31;;;1.64;100.00
3917;BME280;1973;50.518;7.318;2023-03-04T00:24:07;101882.16;;;1.64;100.00
3917;BME280;1973;50.518;7.318;2023-03-04T00:26:34;101893.03;;;1.64;100.00
3917;BME280;1973;50.518;7.318;2023-03-04T00:29:00;101876.63;;;1.66;100.00
3917;BME280;1973;50.518;7.318;2023-03-04T00:31:27;101871.19;;;1.66;100.00
3917;BME280;1973;50.518;7.318;2023-03-04T00:33:53;101880.19;;;1.66;100.00
3917;BME280;1973;50.518;7.318;2023-03-04T00:36:20;101877.34;;;1.68;100.00
3917;BME280;1973;50.518;7.318;2023-03-04T00:38:46;101878.09;;;1.70;100.00
3917;BME280;1973;50.518;7.318;2023-03-04T00:41:13;101875.09;;;1.73;100.00
3917;BME280;1973;50.518;7.318;2023-03-04T00:43:39;101880.25;;;1.76;100.00
3917;BME280;1973;50.518;7.318;2023-03-04T00:46:05;101876.56;;;1.77;100.00
3917;BME280;1973;50.518;7.318;2023-03-04T00:48:32;101885.41;;;1.79;100.00
3917;BME280;1973;50.518;7.318;2023-03-04T00:50:59;101870.59;;;1.83;100.00
3917;BME280;1973;50.518;7.318;2023-03-04T00:53:25;101877.75;;;1.84;100.00
3917;BME280;1973;50.518;7.318;2023-03-04T00:55:51;101879.44;;;1.85;100.00
3917;BME280;1973;50.518;7.318;2023-03-04T00:58:18;101875.75;;;1.86;100.00
3917;BME280;1973;50.518;7.318;2023-03-04T01:00:44;101874.75;;;1.87;100.00
3917;BME280;1973;50.518;7.318;2023-03-04T01:03:11;101859.19;;;1.89;100.00
3917;BME280;1973;50.518;7.318;2023-03-04T01:05:37;101866.34;;;1.90;100.00
3917;BME280;1973;50.518;7.318;2023-03-04T01:08:04;101862.50;;;1.92;100.00
3917;BME280;1973;50.518;7.318;2023-03-04T01:10:31;101858.09;;;1.91;100.00
3917;BME280;1973;50.518;7.318;2023-03-04T01:12:58;101862.66;;;1.91;100.00
3917;BME280;1973;50.518;7.318;2023-03-04T01:15:24;101860.66;;;1.93;100.00
3917;BME280;1973;50.518;7.318;2023-03-04T01:17:51;101860.53;;;1.94;100.00
3917;BME280;1973;50.518;7.318;2023-03-04T01:20:17;101860.38;;;1.96;100.00
3917;BME280;1973;50.518;7.318;2023-03-04T01:22:44;101856.66;;;1.97;100.00
3917;BME280;1973;50.518;7.318;2023-03-04T01:25:10;101853.97;;;1.97;100.00
3917;BME280;1973;50.518;7.318;2023-03-04T01:27:37;101845.69;;;1.99;100.00
3917;BME280;1973;50.518;7.318;2023-03-04T01:30:04;101856.41;;;2.00;100.00
3917;BME280;1973;50.518;7.318;2023-03-04T01:32:30;101838.25;;;2.01;100.00
3917;BME280;1973;50.518;7.318;2023-03-04T01:34:57;101843.56;;;2.02;100.00
3917;BME280;1973;50.518;7.318;2023-03-04T01:37:23;101838.13;;;2.02;100.00
3917;BME280;1973;50.518;7.318;2023-03-04T01:39:50;101829.00;;;2.03;100.00
3917;BME280;1973;50.518;7.318;2023-03-04T01:42:21;101830.69;;;2.04;100.00
3917;BME280;1973;50.518;7.318;2023-03-04T01:44:49;101830.69;;;2.04;100.00
3917;BME280;1973;50.518;7.318;2023-03-04T01:47:17;101827.00;;;2.05;100.00
3917;BME280;1973;50.518;7.318;2023-03-04T01:49:46;101827.00;;;2.05;100.00
3917;BME280;1973;50.518;7.318;2023-03-04T01:52:16;101825.00;;;2.07;100.00
3917;BME280;1973;50.518;7.318;2023-03-04T01:54:42;101827.72;;;2.07;100.00
3917;BME280;1973;50.518;7.318;2023-03-04T01:57:21;101824.00;;;2.08;100.00
3917;BME280;1973;50.518;7.318;2023-03-04T02:02:49;101813.03;;;2.10;100.00
3917;BME280;1973;50.518;7.318;2023-03-04T02:05:17;101816.59;;;2.10;100.00
3917;BME280;1973;50.518;7.318;2023-03-04T02:07:44;101815.34;;;2.14;100.00
3917;BME280;1973;50.518;7.318;2023-03-04T02:10:11;101809.63;;;2.17;100.00
3917;BME280;1973;50.518;7.318;2023-03-04T02:12:38;101812.19;;;2.19;100.00
3917;BME280;1973;50.518;7.318;2023-03-04T02:15:06;101811.31;;;2.18;100.00
3917;BME280;1973;50.518;7.318;2023-03-04T02:17:33;101813.91;;;2.20;100.00
3917;BME280;1973;50.518;7.318;2023-03-04T02:22:45;101810.91;;;2.23;100.00
3917;BME280;1973;50.518;7.318;2023-03-04T02:25:21;101810.78;;;2.24;100.00
3917;BME280;1973;50.518;7.318;2023-03-04T02:27:49;101810.78;;;2.24;100.00
3917;BME280;1973;50.518;7.318;2023-03-04T02:30:18;101809.94;;;2.24;100.00
3917;BME280;1973;50.518;7.318;2023-03-04T02:32:45;101805.34;;;2.24;100.00
3917;BME280;1973;50.518;7.318;2023-03-04T02:35:16;101805.34;;;2.24;100.00
3917;BME280;1973;50.518;7.318;2023-03-04T02:37:43;101804.38;;;2.25;100.00
3917;BME280;1973;50.518;7.318;2023-03-04T02:40:21;101797.91;;;2.26;100.00
3917;BME280;1973;50.518;7.318;2023-03-04T02:42:49;101797.06;;;2.26;100.00
3917;BME280;1973;50.518;7.318;2023-03-04T02:48:04;101800.78;;;2.25;100.00
3917;BME280;1973;50.518;7.318;2023-03-04T02:50:34;101800.50;;;2.28;100.00
3917;BME280;1973;50.518;7.318;2023-03-04T02:53:01;101796.94;;;2.27;100.00
3917;BME280;1973;50.518;7.318;2023-03-04T02:55:28;101798.66;;;2.28;100.00
3917;BME280;1973;50.518;7.318;2023-03-04T02:57:54;101793.94;;;2.30;100.00
3917;BME280;1973;50.518;7.318;2023-03-04T03:00:21;101796.66;;;2.30;100.00
3917;BME280;1973;50.518;7.318;2023-03-04T03:02:47;101791.22;;;2.30;100.00
3917;BME280;1973;50.518;7.318;2023-03-04T03:05:14;101783.94;;;2.31;100.00
3917;BME280;1973;50.518;7.318;2023-03-04T03:07:40;101781.91;;;2.33;100.00
3917;BME280;1973;50.518;7.318;2023-03-04T03:10:08;101771.91;;;2.33;100.00
3917;BME280;1973;50.518;7.318;2023-03-04T03:12:34;101777.34;;;2.33;100.00
3917;BME280;1973;50.518;7.318;2023-03-04T03:15:01;101782.66;;;2.35;100.00
3917;BME280;1973;50.518;7.318;2023-03-04T03:17:27;101777.09;;;2.36;100.00
3917;BME280;1973;50.518;7.318;2023-03-04T03:19:54;101767.94;;;2.37;100.00
3917;BME280;1973;50.518;7.318;2023-03-04T03:22:20;101774.97;;;2.40;100.00
3917;BME280;1973;50.518;7.318;2023-03-04T03:24:47;101773.94;;;2.41;100.00
3917;BME280;1973;50.518;7.318;2023-03-04T03:27:13;101771.09;;;2.42;100.00
3917;BME280;1973;50.518;7.318;2023-03-04T03:29:40;101774.53;;;2.44;100.00
3917;BME280;1973;50.518;7.318;2023-03-04T03:32:06;101765.38;;;2.45;100.00
3917;BME280;1973;50.518;7.318;2023-03-04T03:34:33;101765.09;;;2.49;100.00
3917;BME280;1973;50.518;7.318;2023-03-04T03:36:59;101774.00;;;2.51;100.00
3917;BME280;1973;50.518;7.318;2023-03-04T03:39:26;101765.69;;;2.52;100.00
3917;BME280;1973;50.518;7.318;2023-03-04T03:41:52;101761.09;;;2.53;100.00
3917;BME280;1973;50.518;7.318;2023-03-04T03:44:19;101769.13;;;2.54;100.00
3917;BME280;1973;50.518;7.318;2023-03-04T03:46:45;101770.97;;;2.54;100.00
3917;BME280;1973;50.518;7.318;2023-03-04T03:49:12;101754.69;;;2.54;100.00
3917;BME280;1973;50.518;7.318;2023-03-04T03:51:38;101765.38;;;2.55;100.00
3917;BME280;1973;50.518;7.318;2023-03-04T03:54:05;101757.97;;;2.57;100.00
3917;BME280;1973;50.518;7.318;2023-03-04T03:56:31;101758.84;;;2.58;100.00
3917;BME280;1973;50.518;7.318;2023-03-04T03:58:58;101758.84;;;2.58;100.00
3917;BME280;1973;50.518;7.318;2023-03-04T04:01:25;101760.56;;;2.59;100.00
3917;BME280;1973;50.518;7.318;2023-03-04T04:03:51;101758.56;;;2.61;100.00
3917;BME280;1973;50.518;7.318;2023-03-04T04:06:18;101756.69;;;2.61;100.00
3917;BME280;1973;50.518;7.318;2023-03-04T04:08:45;101754.69;;;2.63;100.00
3917;BME280;1973;50.518;7.318;2023-03-04T04:11:11;101752.81;;;2.64;100.00
3917;BME280;1973;50.518;7.318;2023-03-04T04:13:38;101755.53;;;2.64;100.00
3917;BME280;1973;50.518;7.318;2023-03-04T04:16:05;101756.53;;;2.63;100.00
3917;BME280;1973;50.518;7.318;2023-03-04T04:18:32;101744.69;;;2.64;100.00
3917;BME280;1973;50.518;7.318;2023-03-04T04:20:58;101746.41;;;2.65;100.00
3917;BME280;1973;50.518;7.318;2023-03-04T04:23:25;101746.53;;;2.63;100.00
3917;BME280;1973;50.518;7.318;2023-03-04T04:25:54;101746.41;;;2.65;100.00
3917;BME280;1973;50.518;7.318;2023-03-04T04:28:20;101744.69;;;2.64;100.00
3917;BME280;1973;50.518;7.318;2023-03-04T04:30:47;101734.78;;;2.63;100.00
3917;BME280;1973;50.518;7.318;2023-03-04T04:33:14;101734.78;;;2.63;100.00
3917;BME280;1973;50.518;7.318;2023-03-04T04:35:41;101739.41;;;2.62;100.00
3917;BME280;1973;50.518;7.318;2023-03-04T04:38:08;101727.66;;;2.62;100.00
3917;BME280;1973;50.518;7.318;2023-03-04T04:40:35;101727.66;;;2.62;100.00
3917;BME280;1973;50.518;7.318;2023-03-04T04:43:02;101730.50;;;2.60;100.00
3917;BME280;1973;50.518;7.318;2023-03-04T04:45:28;101728.66;;;2.61;100.00
3917;BME280;1973;50.518;7.318;2023-03-04T04:47:55;101731.50;;;2.59;100.00
3917;BME280;1973;50.518;7.318;2023-03-04T04:50:23;101726.06;;;2.59;100.00
3917;BME280;1973;50.518;7.318;2023-03-04T04:52:50;101731.66;;;2.58;100.00
3917;BME280;1973;50.518;7.318;2023-03-04T04:55:16;101733.38;;;2.59;100.00
3917;BME280;1973;50.518;7.318;2023-03-04T04:57:43;101727.09;;;2.58;100.00
3917;BME280;1973;50.518;7.318;2023-03-04T05:00:10;101726.22;;;2.58;100.00
3917;BME280;1973;50.518;7.318;2023-03-04T05:02:37;101729.94;;;2.57;100.00
3917;BME280;1973;50.518;7.318;2023-03-04T05:05:05;101735.38;;;2.57;100.00
3917;BME280;1973;50.518;7.318;2023-03-04T05:07:32;101729.94;;;2.57;100.00
3917;BME280;1973;50.518;7.318;2023-03-04T05:09:59;101732.66;;;2.57;100.00
3917;BME280;1973;50.518;7.318;2023-03-04T05:12:25;101735.38;;;2.57;100.00
3917;BME280;1973;50.518;7.318;2023-03-04T05:14:52;101728.94;;;2.58;100.00
3917;BME280;1973;50.518;7.318;2023-03-04T05:17:18;101737.97;;;2.58;100.00
3917;BME280;1973;50.518;7.318;2023-03-04T05:19:45;101729.81;;;2.58;100.00
3917;BME280;1973;50.518;7.318;2023-03-04T05:22:11;101728.78;;;2.59;100.00
3917;BME280;1973;50.518;7.318;2023-03-04T05:24:38;101726.94;;;2.60;100.00
3917;BME280;1973;50.518;7.318;2023-03-04T05:27:04;101728.66;;;2.61;100.00
3917;BME280;1973;50.518;7.318;2023-03-04T05:29:31;101722.22;;;2.62;100.00
3917;BME280;1973;50.518;7.318;2023-03-04T05:31:57;101730.22;;;2.63;100.00
3917;BME280;1973;50.518;7.318;2023-03-04T05:34:23;101730.22;;;2.63;100.00
3917;BME280;1973;50.518;7.318;2023-03-04T05:36:50;101726.50;;;2.64;100.00
3917;BME280;1973;50.518;7.318;2023-03-04T05:39:16;101721.94;;;2.65;100.00
3917;BME280;1973;50.518;7.318;2023-03-04T05:41:43;101725.34;;;2.67;100.00
3917;BME280;1973;50.518;7.318;2023-03-04T05:44:09;101731.66;;;2.67;100.00
3917;BME280;1973;50.518;7.318;2023-03-04T05:46:36;101730.66;;;2.68;100.00
3917;BME280;1973;50.518;7.318;2023-03-04T05:49:02;101734.25;;;2.69;100.00
3917;BME280;1973;50.518;7.318;2023-03-04T05:51:29;101728.81;;;2.69;100.00
3917;BME280;1973;50.518;7.318;2023-03-04T05:53:55;101728.66;;;2.70;100.00
3917;BME280;1973;50.518;7.318;2023-03-04T05:56:22;101732.22;;;2.71;100.00
3917;BME280;1973;50.518;7.318;2023-03-04T05:58:48;101733.09;;;2.71;100.00
3917;BME280;1973;50.518;7.318;2023-03-04T06:01:15;101737.66;;;2.71;100.00
3917;BME280;1973;50.518;7.318;2023-03-04T06:03:42;101729.38;;;2.72;100.00
3917;BME280;1973;50.518;7.318;2023-03-04T06:06:09;101736.53;;;2.73;100.00
3917;BME280;1973;50.518;7.318;2023-03-04T06:08:35;101749.97;;;2.75;100.00
3917;BME280;1973;50.518;7.318;2023-03-04T06:11:02;101743.56;;;2.76;100.00
3917;BME280;1973;50.518;7.318;2023-03-04T06:13:30;101750.72;;;2.77;100.00
3917;BME280;1973;50.518;7.318;2023-03-04T06:15:58;101749.69;;;2.78;100.00
3917;BME280;1973;50.518;7.318;2023-03-04T06:18:26;101745.97;;;2.79;100.00
3917;BME280;1973;50.518;7.318;2023-03-04T06:20:58;101760.28;;;2.81;100.00
3917;BME280;1973;50.518;7.318;2023-03-04T06:23:25;101762.75;;;2.84;100.00
3917;BME280;1973;50.518;7.318;2023-03-04T06:25:53;101766.03;;;2.87;100.00
3917;BME280;1973;50.518;7.318;2023-03-04T06:28:20;101769.44;;;2.89;100.00
3917;BME280;1973;50.518;7.318;2023-03-04T06:30:47;101762.84;;;2.92;100.00
3917;BME280;1973;50.518;7.318;2023-03-04T06:33:13;101773.47;;;2.95;100.00
3917;BME280;1973;50.518;7.318;2023-03-04T06:35:40;101766.75;;;2.99;100.00
3917;BME280;1973;50.518;7.318;2023-03-04T06:38:06;101767.47;;;3.01;100.00
3917;BME280;1973;50.518;7.318;2023-03-04T06:40:33;101773.59;;;3.03;100.00
3917;BME280;1973;50.518;7.318;2023-03-04T06:42:59;101770.63;;;3.06;100.00
3917;BME280;1973;50.518;7.318;2023-03-04T06:45:26;101777.50;;;3.10;100.00
3917;BME280;1973;50.518;7.318;2023-03-04T06:47:52;101775.47;;;3.12;100.00
3917;BME280;1973;50.518;7.318;2023-03-04T06:50:19;101779.63;;;3.16;100.00
3917;BME280;1973;50.518;7.318;2023-03-04T06:52:45;101776.63;;;3.19;100.00
3917;BME280;1973;50.518;7.318;2023-03-04T06:55:12;101783.50;;;3.23;100.00
3917;BME280;1973;50.518;7.318;2023-03-04T06:57:39;101781.47;;;3.25;100.00
3917;BME280;1973;50.518;7.318;2023-03-04T07:00:06;101778.31;;;3.30;100.00
3917;BME280;1973;50.518;7.318;2023-03-04T07:02:32;101778.19;;;3.31;100.00
3917;BME280;1973;50.518;7.318;2023-03-04T07:04:59;101783.22;;;3.36;100.00
3917;BME280;1973;50.518;7.318;2023-03-04T07:07:25;101779.47;;;3.37;100.00
3917;BME280;1973;50.518;7.318;2023-03-04T07:09:52;101785.47;;;3.40;100.00
3917;BME280;1973;50.518;7.318;2023-03-04T07:12:19;101782.50;;;3.43;100.00
3917;BME280;1973;50.518;7.318;2023-03-04T07:14:45;101780.59;;;3.44;100.00
3917;BME280;1973;50.518;7.318;2023-03-04T07:17:12;101782.19;;;3.47;100.00
3917;BME280;1973;50.518;7.318;2023-03-04T07:19:38;101784.44;;;3.51;100.00
3917;BME280;1973;50.518;7.318;2023-03-04T07:22:05;101785.19;;;3.53;100.00
3917;BME280;1973;50.518;7.318;2023-03-04T07:24:32;101786.75;;;3.56;100.00
3917;BME280;1973;50.518;7.318;2023-03-04T07:26:58;101786.44;;;3.59;100.00
3917;BME280;1973;50.518;7.318;2023-03-04T07:29:25;101781.72;;;3.61;100.00
3917;BME280;1973;50.518;7.318;2023-03-04T07:31:51;101786.88;;;3.64;100.00
3917;BME280;1973;50.518;7.318;2023-03-04T07:34:19;101795.47;;;3.69;100.00
3917;BME280;1973;50.518;7.318;2023-03-04T07:36:45;101784.97;;;3.74;100.00
3917;BME280;1973;50.518;7.318;2023-03-04T07:39:12;101785.41;;;3.79;100.00
3917;BME280;1973;50.518;7.318;2023-03-04T07:41:40;101789.69;;;3.81;100.00
3917;BME280;1973;50.518;7.318;2023-03-04T07:44:08;101793.72;;;3.87;100.00
3917;BME280;1973;50.518;7.318;2023-03-04T07:46:38;101803.44;;;3.89;100.00
3917;BME280;1973;50.518;7.318;2023-03-04T07:49:05;101795.13;;;3.91;100.00
3917;BME280;1973;50.518;7.318;2023-03-04T07:51:31;101796.56;;;3.95;100.00
3917;BME280;1973;50.518;7.318;2023-03-04T07:53:59;101793.38;;;4.00;100.00
3917;BME280;1973;50.518;7.318;2023-03-04T07:56:28;101807.41;;;4.05;100.00
3917;BME280;1973;50.518;7.318;2023-03-04T07:58:55;101804.56;;;4.06;100.00
3917;BME280;1973;50.518;7.318;2023-03-04T08:01:25;101806.81;;;4.11;100.00
3917;BME280;1973;50.518;7.318;2023-03-04T08:03:52;101808.41;;;4.13;100.00
3917;BME280;1973;50.518;7.318;2023-03-04T08:06:20;101804.63;;;4.14;100.00
3917;BME280;1973;50.518;7.318;2023-03-04T08:08:47;101806.22;;;4.17;100.00
3917;BME280;1973;50.518;7.318;2023-03-04T08:11:19;101814.09;;;4.20;100.00
3917;BME280;1973;50.518;7.318;2023-03-04T08:13:47;101813.94;;;4.21;100.00
3917;BME280;1973;50.518;7.318;2023-03-04T08:16:16;101809.34;;;4.22;100.00
3917;BME280;1973;50.518;7.318;2023-03-04T08:18:45;101808.22;;;4.24;100.00
3917;BME280;1973;50.518;7.318;2023-03-04T08:21:14;101809.91;;;4.25;100.00
3917;BME280;1973;50.518;7.318;2023-03-04T08:23:41;101808.91;;;4.26;100.00
3917;BME280;1973;50.518;7.318;2023-03-04T08:26:10;101806.59;;;4.31;100.00
3917;BME280;1973;50.518;7.318;2023-03-04T08:28:38;101802.69;;;4.34;100.00
3917;BME280;1973;50.518;7.318;2023-03-04T08:31:05;101807.84;;;4.37;100.00
3917;BME280;1973;50.518;7.318;2023-03-04T08:33:32;101800.94;;;4.43;100.00
3917;BME280;1973;50.518;7.318;2023-03-04T08:35:59;101807.25;;;4.43;100.00
3917;BME280;1973;50.518;7.318;2023-03-04T08:38:25;101808.81;;;4.46;100.00
3917;BME280;1973;50.518;7.318;2023-03-04T08:40:55;101809.25;;;4.51;100.00
3917;BME280;1973;50.518;7.318;2023-03-04T08:43:23;101811.78;;;4.52;100.00
3917;BME280;1973;50.518;7.318;2023-03-04T08:45:51;101806.88;;;4.56;100.00
3917;BME280;1973;50.518;7.318;2023-03-04T08:48:19;101806.59;;;4.59;100.00
3917;BME280;1973;50.518;7.318;2023-03-04T08:50:46;101811.59;;;4.63;100.00
3917;BME280;1973;50.518;7.318;2023-03-04T08:53:13;101812.13;;;4.67;100.00
3917;BME280;1973;50.518;7.318;2023-03-04T08:55:40;101813.56;;;4.71;100.00
3917;BME280;1973;50.518;7.318;2023-03-04T08:58:07;101809.50;;;4.75;100.00
3917;BME280;1973;50.518;7.318;2023-03-04T09:00:36;101806.47;;;4.78;100.00
3917;BME280;1973;50.518;7.318;2023-03-04T09:03:03;101806.88;;;4.83;100.00
3917;BME280;1973;50.518;7.318;2023-03-04T09:05:31;101812.03;;;4.86;100.00
3917;BME280;1973;50.518;7.318;2023-03-04T09:07:57;101804.53;;;4.88;100.00
3917;BME280;1973;50.518;7.318;2023-03-04T09:10:24;101803.38;;;4.90;100.00
3917;BME280;1973;50.518;7.318;2023-03-04T09:12:50;101804.06;;;4.93;100.00
3917;BME280;1973;50.518;7.318;2023-03-04T09:15:17;101802.63;;;4.98;100.00
3917;BME280;1973;50.518;7.318;2023-03-04T09:17:44;101805.03;;;5.01;100.00
3917;BME280;1973;50.518;7.318;2023-03-04T09:20:11;101806.25;;;5.07;100.00
3917;BME280;1973;50.518;7.318;2023-03-04T09:22:39;101807.69;;;5.11;100.00
3917;BME280;1973;50.518;7.318;2023-03-04T09:25:07;101807.94;;;5.17;100.00
3917;BME280;1973;50.518;7.318;2023-03-04T09:27:38;101804.56;;;5.23;100.00
3917;BME280;1973;50.518;7.318;2023-03-04T09:30:05;101804.94;;;5.28;100.00
3917;BME280;1973;50.518;7.318;2023-03-04T09:32:32;101804.34;;;5.34;100.00
3917;BME280;1973;50.518;7.318;2023-03-04T09:34:59;101805.41;;;5.42;100.00
3917;BME280;1973;50.518;7.318;2023-03-04T09:37:25;101803.91;;;5.47;100.00
3917;BME280;1973;50.518;7.318;2023-03-04T09:39:51;101809.91;;;5.51;100.00
3917;BME280;1973;50.518;7.318;2023-03-04T09:42:26;101801.13;;;5.57;100.00
3917;BME280;1973;50.518;7.318;2023-03-04T09:44:53;101807.97;;;5.61;100.00
3917;BME280;1973;50.518;7.318;2023-03-04T09:47:21;101803.72;;;5.66;100.00
3917;BME280;1973;50.518;7.318;2023-03-04T09:49:55;101805.00;;;5.72;100.00
3917;BME280;1973;50.518;7.318;2023-03-04T09:52:33;101799.88;;;5.77;100.00
3917;BME280;1973;50.518;7.318;2023-03-04T09:55:04;101800.28;;;5.82;100.00
3917;BME280;1973;50.518;7.318;2023-03-04T09:58:06;101798.97;;;5.86;100.00
3917;BME280;1973;50.518;7.318;2023-03-04T10:00:42;101802.38;;;5.88;100.00
3917;BME280;1973;50.518;7.318;2023-03-04T10:06:06;101790.31;;;5.91;100.00
3917;BME280;1973;50.518;7.318;2023-03-04T10:08:55;101789.97;;;5.94;100.00
3917;BME280;1973;50.518;7.318;2023-03-04T10:11:32;101790.97;;;5.93;100.00
3917;BME280;1973;50.518;7.318;2023-03-04T10:16:45;101784.50;;;5.94;100.00
3917;BME280;1973;50.518;7.318;2023-03-04T10:21:42;101784.50;;;5.94;100.00
3917;BME280;1973;50.518;7.318;2023-03-04T10:24:12;101786.38;;;5.93;100.00
3917;BME280;1973;50.518;7.318;2023-03-04T10:26:43;101771.53;;;5.96;100.00
3917;BME280;1973;50.518;7.318;2023-03-04T10:29:14;101778.88;;;5.95;100.00
3917;BME280;1973;50.518;7.318;2023-03-04T10:31:41;101781.28;;;5.98;100.00
3917;BME280;1973;50.518;7.318;2023-03-04T10:34:11;101774.44;;;5.94;100.00
3917;BME280;1973;50.518;7.318;2023-03-04T10:36:45;101768.63;;;5.97;100.00
3917;BME280;1973;50.518;7.318;2023-03-04T10:39:20;101776.66;;;5.99;100.00
3917;BME280;1973;50.518;7.318;2023-03-04T10:44:27;101772.59;;;6.03;100.00
3917;BME280;1973;50.518;7.318;2023-03-04T10:46:56;101773.44;;;6.03;100.00
3917;BME280;1973;50.518;7.318;2023-03-04T10:49:24;101772.81;;;6.09;100.00
3917;BME280;1973;50.518;7.318;2023-03-04T10:57:34;101751.22;;;6.82;100.00
3917;BME280;1973;50.518;7.318;2023-03-04T11:02:45;101749.72;;;7.20;100.00
3917;BME280;1973;50.518;7.318;2023-03-04T11:05:21;101745.59;;;7.48;100.00
3917;BME280;1973;50.518;7.318;2023-03-04T11:07:49;101746.41;;;7.81;100.00
3917;BME280;1973;50.518;7.318;2023-03-04T11:10:29;101744.00;;;7.94;100.00
3917;BME280;1973;50.518;7.318;2023-03-04T11:13:04;101746.75;;;7.94;100.00
3917;BME280;1973;50.518;7.318;2023-03-04T11:15:53;101740.75;;;7.91;100.00
3917;BME280;1973;50.518;7.318;2023-03-04T11:20:56;101736.84;;;7.69;100.00
3917;BME280;1973;50.518;7.318;2023-03-04T11:24:25;101733.28;;;7.60;100.00
3917;BME280;1973;50.518;7.318;2023-03-04T11:26:28;101737.75;;;7.53;100.00
3917;BME280;1973;50.518;7.318;2023-03-04T11:29:21;101729.69;;;7.52;100.00
3917;BME280;1973;50.518;7.318;2023-03-04T11:31:59;101730.53;;;7.52;100.00
3917;BME280;1973;50.518;7.318;2023-03-04T11:34:45;101731.41;;;7.53;100.00
3917;BME280;1973;50.518;7.318;2023-03-04T11:37:27;101734.81;;;7.55;100.00
3917;BME280;1973;50.518;7.318;2023-03-04T11:40:03;101730.69;;;7.59;100.00
3917;BME280;1973;50.518;7.318;2023-03-04T11:42:41;101724.88;;;7.62;100.00
3917;BME280;1973;50.518;7.318;2023-03-04T11:45:16;101717.69;;;7.61;100.00
3917;BME280;1973;50.518;7.318;2023-03-04T11:50:28;101705.66;;;7.70;100.00
3917;BME280;1973;50.518;7.318;2023-03-04T11:56:06;101704.66;;;7.63;100.00
3917;BME280;1973;50.518;7.318;2023-03-04T11:58:43;101701.25;;;7.61;100.00
3917;BME280;1973;50.518;7.318;2023-03-04T12:01:24;101700.03;;;7.63;100.00
3917;BME280;1973;50.518;7.318;2023-03-04T12:09:34;101698.81;;;7.66;100.00
3917;BME280;1973;50.518;7.318;2023-03-04T12:15:43;101701.06;;;7.70;100.00
3917;BME280;1973;50.518;7.318;2023-03-04T12:21:00;101684.09;;;7.67;100.00
3917;BME280;1973;50.518;7.318;2023-03-04T12:23:54;101685.81;;;7.68;100.00
3917;BME280;1973;50.518;7.318;2023-03-04T12:31:31;101681.72;;;7.56;100.00
3917;BME280;1973;50.518;7.318;2023-03-04T12:36:57;101669.72;;;7.65;100.00
3917;BME280;1973;50.518;7.318;2023-03-04T12:39:38;101677.97;;;7.57;100.00
3917;BME280;1973;50.518;7.318;2023-03-04T12:45:07;101667.38;;;7.54;100.00
3917;BME280;1973;50.518;7.318;2023-03-04T12:53:00;101643.84;;;7.75;100.00
3917;BME280;1973;50.518;7.318;2023-03-04T12:55:37;101647.38;;;7.84;100.00
3917;BME280;1973;50.518;7.318;2023-03-04T12:58:05;101633.31;;;7.87;100.00
3917;BME280;1973;50.518;7.318;2023-03-04T13:06:17;101625.38;;;8.00;100.00
3917;BME280;1973;50.518;7.318;2023-03-04T13:09:07;101616.47;;;7.98;100.00
3917;BME280;1973;50.518;7.318;2023-03-04T13:14:22;101616.84;;;7.95;100.00
3917;BME280;1973;50.518;7.318;2023-03-04T13:16:55;101617.72;;;7.88;100.00
3917;BME280;1973;50.518;7.318;2023-03-04T13:19:56;101615.53;;;7.83;100.00
3917;BME280;1973;50.518;7.318;2023-03-04T13:24:52;101620.69;;;7.78;100.00
3917;BME280;1973;50.518;7.318;2023-03-04T13:27:45;101619.34;;;7.74;100.00
3917;BME280;1973;50.518;7.318;2023-03-04T13:41:15;101598.44;;;7.73;100.00
3917;BME280;1973;50.518;7.318;2023-03-04T13:43:43;101608.88;;;7.77;100.00
3917;BME280;1973;50.518;7.318;2023-03-04T13:51:26;101587.28;;;7.74;100.00
3917;BME280;1973;50.518;7.318;2023-03-04T13:56:36;101600.00;;;7.67;100.00
3917;BME280;1973;50.518;7.318;2023-03-04T14:01:35;101592.31;;;7.63;100.00
3917;BME280;1973;50.518;7.318;2023-03-04T14:06:55;101593.34;;;7.62;100.00
3917;BME280;1973;50.518;7.318;2023-03-04T14:09:26;101589.22;;;7.66;100.00
3917;BME280;1973;50.518;7.318;2023-03-04T14:11:55;101591.59;;;7.69;100.00
3917;BME280;1973;50.518;7.318;2023-03-04T14:14:25;101579.25;;;7.73;100.00
3917;BME280;1973;50.518;7.318;2023-03-04T14:16:56;101582.31;;;7.78;100.00
3917;BME280;1973;50.518;7.318;2023-03-04T14:19:29;101565.50;;;7.81;100.00
3917;BME280;1973;50.518;7.318;2023-03-04T14:21:58;101567.72;;;7.86;100.00
3917;BME280;1973;50.518;7.318;2023-03-04T14:24:25;101569.44;;;7.87;100.00
3917;BME280;1973;50.518;7.318;2023-03-04T14:27:12;101567.34;;;7.89;100.00
3917;BME280;1973;50.518;7.318;2023-03-04T14:29:39;101555.38;;;7.90;100.00
3917;BME280;1973;50.518;7.318;2023-03-04T14:32:05;101554.28;;;7.99;100.00
3917;BME280;1973;50.518;7.318;2023-03-04T14:34:36;101547.22;;;8.04;100.00
3917;BME280;1973;50.518;7.318;2023-03-04T14:37:19;101548.75;;;8.07;100.00
3917;BME280;1973;50.518;7.318;2023-03-04T14:39:48;101553.00;;;8.09;100.00
3917;BME280;1973;50.518;7.318;2023-03-04T14:42:17;101552.50;;;8.06;100.00
3917;BME280;1973;50.518;7.318;2023-03-04T14:44:48;101544.97;;;8.08;100.00
3917;BME280;1973;50.518;7.318;2023-03-04T14:47:23;101541.53;;;8.06;100.00
3917;BME280;1973;50.518;7.318;2023-03-04T14:49:51;101533.03;;;8.01;100.00
3917;BME280;1973;50.518;7.318;2023-03-04T14:57:30;101526.19;;;7.97;100.00
3917;BME280;1973;50.518;7.318;2023-03-04T15:00:37;101522.59;;;7.96;100.00
3917;BME280;1973;50.518;7.318;2023-03-04T15:03:14;101519.00;;;7.96;100.00
3917;BME280;1973;50.518;7.318;2023-03-04T15:05:47;101523.81;;;7.94;100.00